SHT8T EGLL-EGPH
Flight info
| Callsign | SHT8T |
|---|---|
| Flight time | 1h 14m |
| Altitude | 32000 |
| Route | ULTIB T420 TNT UN57 POL UN601 RIBEL DCT INPIP |
| Aircraft | A320/M-SDE3FGHIRWY/LB1 |
Departure
| Time | 2026-04-21 14:40 |
|---|---|
| Airport | London Heathrow Airport (EGLL) |
Arrival
| Time | 2026-04-21 15:54 |
|---|---|
| Airport | Edinburgh Airport (EGPH) |
| Time | Latitude | Longitude | Altitude | Speed | Heading |
|---|---|---|---|---|---|
| 2026-04-21 13:45 | 51.46931 | -0.48647 | 90 ft | 0 kts | 360° |
| 2026-04-21 14:29 | 51.46930 | -0.48647 | 86 ft | 1 kts | 360° |
| 2026-04-21 14:30 | 51.46906 | -0.48647 | 90 ft | 4 kts | 360° |
| 2026-04-21 14:30 | 51.46883 | -0.48644 | 88 ft | 4 kts | 311° |
| 2026-04-21 14:30 | 51.46877 | -0.48617 | 89 ft | 2 kts | 270° |
| 2026-04-21 14:30 | 51.46877 | -0.48592 | 86 ft | 0 kts | 270° |
| 2026-04-21 14:35 | 51.46877 | -0.48595 | 86 ft | 1 kts | 270° |
| 2026-04-21 14:35 | 51.46877 | -0.48632 | 87 ft | 5 kts | 270° |
| 2026-04-21 14:35 | 51.46876 | -0.48709 | 86 ft | 6 kts | 267° |
| 2026-04-21 14:36 | 51.46839 | -0.48750 | 87 ft | 8 kts | 185° |
| 2026-04-21 14:36 | 51.46792 | -0.48751 | 88 ft | 8 kts | 178° |
| 2026-04-21 14:36 | 51.46727 | -0.48749 | 86 ft | 11 kts | 180° |
| 2026-04-21 14:36 | 51.46655 | -0.48708 | 86 ft | 13 kts | 118° |
| 2026-04-21 14:37 | 51.46652 | -0.48560 | 86 ft | 10 kts | 89° |
| 2026-04-21 14:37 | 51.46622 | -0.48471 | 89 ft | 10 kts | 160° |
| 2026-04-21 14:37 | 51.46593 | -0.48467 | 88 ft | 0 kts | 178° |
| 2026-04-21 14:38 | 51.46582 | -0.48467 | 89 ft | 3 kts | 178° |
| 2026-04-21 14:38 | 51.46551 | -0.48466 | 87 ft | 6 kts | 179° |
| 2026-04-21 14:38 | 51.46503 | -0.48457 | 90 ft | 8 kts | 156° |
| 2026-04-21 14:39 | 51.46479 | -0.48372 | 87 ft | 10 kts | 90° |
| 2026-04-21 14:39 | 51.46480 | -0.48187 | 88 ft | 34 kts | 90° |
| 2026-04-21 14:39 | 51.46482 | -0.47405 | 86 ft | 101 kts | 89° |
| 2026-04-21 14:39 | 51.46486 | -0.46456 | 92 ft | 136 kts | 89° |
| 2026-04-21 14:40 | 51.46496 | -0.44832 | 407 ft | 155 kts | 88° |
| 2026-04-21 14:40 | 51.46511 | -0.43103 | 1157 ft | 155 kts | 87° |
| 2026-04-21 14:40 | 51.46594 | -0.41333 | 1687 ft | 168 kts | 72° |
| 2026-04-21 14:40 | 51.47328 | -0.39726 | 2104 ft | 190 kts | 45° |
| 2026-04-21 14:41 | 51.48382 | -0.38062 | 2529 ft | 219 kts | 50° |
| 2026-04-21 14:41 | 51.49359 | -0.36243 | 3213 ft | 233 kts | 52° |
| 2026-04-21 14:41 | 51.50410 | -0.34168 | 4181 ft | 238 kts | 54° |
| 2026-04-21 14:41 | 51.51453 | -0.32070 | 5197 ft | 242 kts | 54° |
| 2026-04-21 14:42 | 51.52441 | -0.29851 | 6114 ft | 247 kts | 64° |
| 2026-04-21 14:42 | 51.53059 | -0.27280 | 7051 ft | 249 kts | 73° |
| 2026-04-21 14:42 | 51.53723 | -0.24648 | 7908 ft | 256 kts | 58° |
| 2026-04-21 14:42 | 51.55078 | -0.22726 | 8707 ft | 270 kts | 28° |
| 2026-04-21 14:43 | 51.56960 | -0.22123 | 9565 ft | 283 kts | 4° |
| 2026-04-21 14:43 | 51.58960 | -0.22360 | 10523 ft | 292 kts | 356° |
| 2026-04-21 14:43 | 51.61014 | -0.23104 | 10921 ft | 317 kts | 342° |
| 2026-04-21 14:43 | 51.63040 | -0.24805 | 11317 ft | 338 kts | 329° |
| 2026-04-21 14:44 | 51.64990 | -0.26993 | 12003 ft | 344 kts | 330° |
| 2026-04-21 14:44 | 51.67013 | -0.29065 | 12778 ft | 346 kts | 332° |
| 2026-04-21 14:44 | 51.69091 | -0.31062 | 13532 ft | 349 kts | 333° |
| 2026-04-21 14:44 | 51.71202 | -0.33036 | 14313 ft | 352 kts | 332° |
| 2026-04-21 14:45 | 51.73327 | -0.35020 | 15004 ft | 355 kts | 332° |
| 2026-04-21 14:45 | 51.75465 | -0.37029 | 15696 ft | 357 kts | 332° |
| 2026-04-21 14:45 | 51.77618 | -0.39078 | 16315 ft | 362 kts | 332° |
| 2026-04-21 14:45 | 51.79790 | -0.41169 | 16859 ft | 365 kts | 331° |
| 2026-04-21 14:46 | 51.81981 | -0.43293 | 17496 ft | 369 kts | 332° |
| 2026-04-21 14:46 | 51.84187 | -0.45440 | 18172 ft | 371 kts | 332° |
| 2026-04-21 14:46 | 51.86412 | -0.47607 | 18816 ft | 375 kts | 330° |
| 2026-04-21 14:46 | 51.88644 | -0.49782 | 19517 ft | 374 kts | 330° |
| 2026-04-21 14:47 | 51.90861 | -0.51943 | 20390 ft | 369 kts | 329° |
| 2026-04-21 14:47 | 51.93052 | -0.54078 | 21237 ft | 366 kts | 329° |
| 2026-04-21 14:47 | 51.95225 | -0.56200 | 21999 ft | 365 kts | 329° |
| 2026-04-21 14:47 | 51.97402 | -0.58330 | 22648 ft | 366 kts | 328° |
| 2026-04-21 14:48 | 51.99583 | -0.60467 | 23337 ft | 366 kts | 328° |
| 2026-04-21 14:48 | 52.01763 | -0.62601 | 24015 ft | 366 kts | 328° |
| 2026-04-21 14:48 | 52.03940 | -0.64731 | 24583 ft | 366 kts | 328° |
| 2026-04-21 14:48 | 52.06127 | -0.66869 | 25030 ft | 369 kts | 328° |
| 2026-04-21 14:49 | 52.08340 | -0.69040 | 25449 ft | 373 kts | 327° |
| 2026-04-21 14:49 | 52.10559 | -0.71226 | 25939 ft | 374 kts | 327° |
| 2026-04-21 14:49 | 52.12782 | -0.73420 | 26451 ft | 374 kts | 327° |
| 2026-04-21 14:49 | 52.15006 | -0.75617 | 26957 ft | 374 kts | 327° |
| 2026-04-21 14:50 | 52.16509 | -0.77101 | 27294 ft | 374 kts | 327° |
| 2026-04-21 14:50 | 52.19457 | -0.80013 | 27949 ft | 374 kts | 326° |
| 2026-04-21 14:50 | 52.21682 | -0.82214 | 28447 ft | 375 kts | 326° |
| 2026-04-21 14:50 | 52.23913 | -0.84420 | 28939 ft | 375 kts | 326° |
| 2026-04-21 14:51 | 52.26142 | -0.86628 | 29413 ft | 375 kts | 326° |
| 2026-04-21 14:51 | 52.28372 | -0.88842 | 29913 ft | 376 kts | 326° |
| 2026-04-21 14:51 | 52.30616 | -0.91077 | 30259 ft | 379 kts | 326° |
| 2026-04-21 14:51 | 52.32873 | -0.93330 | 30612 ft | 381 kts | 326° |
| 2026-04-21 14:52 | 52.35149 | -0.95598 | 30931 ft | 385 kts | 326° |
| 2026-04-21 14:52 | 52.37444 | -0.97884 | 31210 ft | 388 kts | 326° |
| 2026-04-21 14:52 | 52.39758 | -1.00190 | 31501 ft | 390 kts | 325° |
| 2026-04-21 14:52 | 52.42105 | -1.02536 | 31894 ft | 390 kts | 325° |
| 2026-04-21 14:53 | 52.44389 | -1.04828 | 32223 ft | 391 kts | 325° |
| 2026-04-21 14:53 | 52.48987 | -1.09446 | 32306 ft | 376 kts | 325° |
| 2026-04-21 14:54 | 52.53418 | -1.13894 | 32284 ft | 373 kts | 325° |
| 2026-04-21 14:54 | 52.57849 | -1.18367 | 32275 ft | 374 kts | 325° |
| 2026-04-21 14:55 | 52.62289 | -1.22861 | 32258 ft | 375 kts | 325° |
| 2026-04-21 14:55 | 52.66732 | -1.27349 | 32253 ft | 375 kts | 325° |
| 2026-04-21 14:56 | 52.71177 | -1.31850 | 32251 ft | 375 kts | 325° |
| 2026-04-21 14:56 | 52.75621 | -1.36373 | 32393 ft | 375 kts | 325° |
| 2026-04-21 14:57 | 52.80077 | -1.40927 | 32371 ft | 378 kts | 326° |
| 2026-04-21 14:57 | 52.84570 | -1.45530 | 32360 ft | 381 kts | 326° |
| 2026-04-21 14:58 | 52.89087 | -1.50166 | 32362 ft | 383 kts | 326° |
| 2026-04-21 14:58 | 52.93609 | -1.54818 | 32389 ft | 382 kts | 325° |
| 2026-04-21 14:59 | 52.98111 | -1.59452 | 32411 ft | 380 kts | 325° |
| 2026-04-21 14:59 | 53.02596 | -1.64083 | 32395 ft | 380 kts | 325° |
| 2026-04-21 15:00 | 53.07301 | -1.68181 | 32384 ft | 386 kts | 336° |
| 2026-04-21 15:00 | 53.12348 | -1.71294 | 32385 ft | 387 kts | 336° |
| 2026-04-21 15:01 | 53.17408 | -1.74423 | 32390 ft | 388 kts | 336° |
| 2026-04-21 15:01 | 53.22477 | -1.77580 | 32392 ft | 389 kts | 336° |
| 2026-04-21 15:02 | 53.27555 | -1.80750 | 32395 ft | 391 kts | 336° |
| 2026-04-21 15:02 | 53.32671 | -1.83948 | 32380 ft | 394 kts | 336° |
| 2026-04-21 15:03 | 53.37815 | -1.87171 | 32385 ft | 396 kts | 336° |
| 2026-04-21 15:03 | 53.42979 | -1.90415 | 32380 ft | 397 kts | 336° |
| 2026-04-21 15:04 | 53.48184 | -1.93695 | 32399 ft | 397 kts | 336° |
| 2026-04-21 15:04 | 53.53357 | -1.96960 | 32409 ft | 398 kts | 336° |
| 2026-04-21 15:05 | 53.58534 | -2.00237 | 32416 ft | 397 kts | 336° |
| 2026-04-21 15:05 | 53.66298 | -2.05177 | 32423 ft | 398 kts | 336° |
| 2026-04-21 15:06 | 53.71474 | -2.08468 | 32397 ft | 397 kts | 336° |
| 2026-04-21 15:06 | 53.76634 | -2.11799 | 32418 ft | 397 kts | 335° |
| 2026-04-21 15:07 | 53.81765 | -2.15287 | 32412 ft | 397 kts | 335° |
| 2026-04-21 15:07 | 53.86885 | -2.18831 | 32415 ft | 398 kts | 335° |
| 2026-04-21 15:08 | 53.92013 | -2.22368 | 32421 ft | 398 kts | 335° |
| 2026-04-21 15:08 | 53.97148 | -2.25891 | 32423 ft | 398 kts | 335° |
| 2026-04-21 15:09 | 54.02287 | -2.29419 | 32421 ft | 399 kts | 335° |
| 2026-04-21 15:09 | 54.07435 | -2.32972 | 32414 ft | 400 kts | 335° |
| 2026-04-21 15:10 | 54.12588 | -2.36536 | 32420 ft | 400 kts | 335° |
| 2026-04-21 15:10 | 54.17744 | -2.40104 | 32422 ft | 400 kts | 335° |
| 2026-04-21 15:11 | 54.22063 | -2.43114 | 32426 ft | 400 kts | 335° |
| 2026-04-21 15:11 | 54.27223 | -2.46714 | 32425 ft | 401 kts | 335° |
| 2026-04-21 15:12 | 54.32399 | -2.50339 | 32433 ft | 402 kts | 335° |
| 2026-04-21 15:12 | 54.37576 | -2.53972 | 32429 ft | 403 kts | 335° |
| 2026-04-21 15:13 | 54.42758 | -2.57614 | 32446 ft | 402 kts | 335° |
| 2026-04-21 15:13 | 54.47932 | -2.61269 | 32446 ft | 402 kts | 335° |
| 2026-04-21 15:14 | 54.53124 | -2.64935 | 32439 ft | 404 kts | 335° |
| 2026-04-21 15:14 | 54.55727 | -2.66776 | 32174 ft | 405 kts | 336° |
| 2026-04-21 15:14 | 54.58334 | -2.68621 | 31593 ft | 404 kts | 336° |
| 2026-04-21 15:15 | 54.60905 | -2.70439 | 31124 ft | 392 kts | 335° |
| 2026-04-21 15:15 | 54.63379 | -2.72190 | 30684 ft | 377 kts | 334° |
| 2026-04-21 15:15 | 54.65762 | -2.73883 | 30207 ft | 364 kts | 334° |
| 2026-04-21 15:15 | 54.68061 | -2.75522 | 29788 ft | 352 kts | 335° |
| 2026-04-21 15:16 | 54.70317 | -2.77135 | 29385 ft | 351 kts | 335° |
| 2026-04-21 15:16 | 54.72576 | -2.78759 | 29002 ft | 351 kts | 335° |
| 2026-04-21 15:16 | 54.74857 | -2.80405 | 28609 ft | 359 kts | 336° |
| 2026-04-21 15:16 | 54.77217 | -2.82105 | 28182 ft | 376 kts | 336° |
| 2026-04-21 15:17 | 54.79663 | -2.83862 | 27772 ft | 383 kts | 336° |
| 2026-04-21 15:17 | 54.82128 | -2.85632 | 27359 ft | 383 kts | 337° |
| 2026-04-21 15:17 | 54.84590 | -2.87406 | 26955 ft | 383 kts | 337° |
| 2026-04-21 15:17 | 54.87050 | -2.89178 | 26549 ft | 382 kts | 338° |
| 2026-04-21 15:18 | 54.89505 | -2.90942 | 26045 ft | 383 kts | 338° |
| 2026-04-21 15:18 | 54.91976 | -2.92719 | 25504 ft | 385 kts | 339° |
| 2026-04-21 15:18 | 54.94459 | -2.94514 | 24990 ft | 387 kts | 339° |
| 2026-04-21 15:18 | 54.96922 | -2.96300 | 24752 ft | 380 kts | 338° |
| 2026-04-21 15:19 | 54.99352 | -2.98063 | 24409 ft | 376 kts | 339° |
| 2026-04-21 15:19 | 55.01760 | -2.99812 | 23996 ft | 374 kts | 339° |
| 2026-04-21 15:19 | 55.04157 | -3.01556 | 23482 ft | 374 kts | 340° |
| 2026-04-21 15:19 | 55.06548 | -3.03299 | 23034 ft | 370 kts | 339° |
| 2026-04-21 15:20 | 55.08916 | -3.05031 | 22610 ft | 367 kts | 340° |
| 2026-04-21 15:20 | 55.11261 | -3.06751 | 22154 ft | 365 kts | 338° |
| 2026-04-21 15:20 | 55.13596 | -3.08463 | 21721 ft | 362 kts | 340° |
| 2026-04-21 15:20 | 55.15918 | -3.10164 | 21276 ft | 361 kts | 340° |
| 2026-04-21 15:21 | 55.18223 | -3.11853 | 20869 ft | 358 kts | 339° |
| 2026-04-21 15:21 | 55.20504 | -3.13524 | 20492 ft | 354 kts | 341° |
| 2026-04-21 15:21 | 55.22769 | -3.15187 | 20097 ft | 351 kts | 341° |
| 2026-04-21 15:21 | 55.24985 | -3.16818 | 19969 ft | 340 kts | 341° |
| 2026-04-21 15:22 | 55.27132 | -3.18401 | 19837 ft | 330 kts | 340° |
| 2026-04-21 15:22 | 55.29274 | -3.19663 | 19619 ft | 321 kts | 351° |
| 2026-04-21 15:22 | 55.31460 | -3.20105 | 19317 ft | 313 kts | 3° |
| 2026-04-21 15:22 | 55.33608 | -3.19854 | 18993 ft | 308 kts | 8° |
| 2026-04-21 15:23 | 55.35740 | -3.19511 | 18634 ft | 307 kts | 9° |
| 2026-04-21 15:23 | 55.37864 | -3.19178 | 18264 ft | 306 kts | 11° |
| 2026-04-21 15:23 | 55.39977 | -3.18849 | 17918 ft | 304 kts | 10° |
| 2026-04-21 15:23 | 55.42078 | -3.18522 | 17553 ft | 303 kts | 8° |
| 2026-04-21 15:24 | 55.44172 | -3.18196 | 17213 ft | 301 kts | 8° |
| 2026-04-21 15:24 | 55.46252 | -3.17874 | 16855 ft | 299 kts | 8° |
| 2026-04-21 15:24 | 55.48323 | -3.17554 | 16478 ft | 298 kts | 9° |
| 2026-04-21 15:24 | 55.50387 | -3.17232 | 16125 ft | 297 kts | 9° |
| 2026-04-21 15:25 | 55.52441 | -3.16907 | 15798 ft | 296 kts | 9° |
| 2026-04-21 15:25 | 55.54487 | -3.16583 | 15482 ft | 295 kts | 9° |
| 2026-04-21 15:25 | 55.56525 | -3.16259 | 15153 ft | 294 kts | 9° |
| 2026-04-21 15:25 | 55.58555 | -3.15935 | 14833 ft | 292 kts | 9° |
| 2026-04-21 15:26 | 55.60574 | -3.15616 | 14518 ft | 291 kts | 9° |
| 2026-04-21 15:26 | 55.62562 | -3.15305 | 14330 ft | 279 kts | 9° |
| 2026-04-21 15:26 | 55.64452 | -3.15016 | 14035 ft | 268 kts | 9° |
| 2026-04-21 15:26 | 55.66303 | -3.15143 | 13525 ft | 270 kts | 350° |
| 2026-04-21 15:27 | 55.68014 | -3.16580 | 13200 ft | 276 kts | 324° |
| 2026-04-21 15:27 | 55.69270 | -3.19154 | 12912 ft | 279 kts | 299° |
| 2026-04-21 15:27 | 55.69819 | -3.22432 | 12601 ft | 279 kts | 272° |
| 2026-04-21 15:27 | 55.69560 | -3.25852 | 12285 ft | 277 kts | 250° |
| 2026-04-21 15:28 | 55.68972 | -3.29103 | 11966 ft | 277 kts | 250° |
| 2026-04-21 15:28 | 55.68381 | -3.32345 | 11720 ft | 275 kts | 250° |
| 2026-04-21 15:28 | 55.67810 | -3.35481 | 11584 ft | 268 kts | 250° |
| 2026-04-21 15:28 | 55.67238 | -3.38638 | 11404 ft | 263 kts | 249° |
| 2026-04-21 15:29 | 55.66685 | -3.41678 | 11193 ft | 263 kts | 249° |
| 2026-04-21 15:29 | 55.66112 | -3.44814 | 10876 ft | 264 kts | 249° |
| 2026-04-21 15:29 | 55.65545 | -3.47904 | 10575 ft | 262 kts | 249° |
| 2026-04-21 15:29 | 55.65002 | -3.50959 | 10257 ft | 260 kts | 254° |
| 2026-04-21 15:30 | 55.64887 | -3.54161 | 9931 ft | 264 kts | 277° |
| 2026-04-21 15:30 | 55.65426 | -3.57239 | 9609 ft | 262 kts | 300° |
| 2026-04-21 15:30 | 55.66555 | -3.59739 | 9298 ft | 264 kts | 321° |
| 2026-04-21 15:30 | 55.67931 | -3.61937 | 8988 ft | 267 kts | 320° |
| 2026-04-21 15:31 | 55.69306 | -3.64145 | 8676 ft | 266 kts | 321° |
| 2026-04-21 15:31 | 55.70710 | -3.66270 | 8303 ft | 264 kts | 323° |
| 2026-04-21 15:31 | 55.72124 | -3.68321 | 7925 ft | 261 kts | 324° |
| 2026-04-21 15:31 | 55.73526 | -3.70331 | 7551 ft | 258 kts | 324° |
| 2026-04-21 15:32 | 55.74921 | -3.72329 | 7169 ft | 257 kts | 325° |
| 2026-04-21 15:32 | 55.76266 | -3.74385 | 6788 ft | 253 kts | 320° |
| 2026-04-21 15:32 | 55.77519 | -3.76522 | 6382 ft | 246 kts | 322° |
| 2026-04-21 15:32 | 55.78958 | -3.77892 | 5985 ft | 228 kts | 356° |
| 2026-04-21 15:33 | 55.80447 | -3.77701 | 5600 ft | 208 kts | 27° |
| 2026-04-21 15:33 | 55.81592 | -3.76316 | 5158 ft | 195 kts | 55° |
| 2026-04-21 15:33 | 55.82316 | -3.74336 | 4858 ft | 188 kts | 62° |
| 2026-04-21 15:33 | 55.82982 | -3.72410 | 4587 ft | 178 kts | 62° |
| 2026-04-21 15:34 | 55.83609 | -3.70591 | 4381 ft | 166 kts | 62° |
| 2026-04-21 15:34 | 55.84192 | -3.68895 | 4145 ft | 157 kts | 62° |
| 2026-04-21 15:34 | 55.84746 | -3.67284 | 3924 ft | 150 kts | 63° |
| 2026-04-21 15:34 | 55.85279 | -3.65730 | 3732 ft | 145 kts | 63° |
| 2026-04-21 15:35 | 55.85814 | -3.64167 | 3527 ft | 153 kts | 62° |
| 2026-04-21 15:35 | 55.86390 | -3.62486 | 3298 ft | 163 kts | 62° |
| 2026-04-21 15:35 | 55.86984 | -3.60752 | 3070 ft | 163 kts | 61° |
| 2026-04-21 15:35 | 55.87579 | -3.59018 | 2853 ft | 165 kts | 61° |
| 2026-04-21 15:36 | 55.88169 | -3.57294 | 2619 ft | 164 kts | 62° |
| 2026-04-21 15:36 | 55.88762 | -3.55560 | 2401 ft | 164 kts | 61° |
| 2026-04-21 15:36 | 55.89356 | -3.53824 | 2169 ft | 162 kts | 61° |
| 2026-04-21 15:36 | 55.89944 | -3.52102 | 1940 ft | 163 kts | 62° |
| 2026-04-21 15:37 | 55.90534 | -3.50372 | 1712 ft | 164 kts | 62° |
| 2026-04-21 15:37 | 55.91115 | -3.48671 | 1487 ft | 154 kts | 61° |
| 2026-04-21 15:37 | 55.91649 | -3.47105 | 1275 ft | 138 kts | 63° |
| 2026-04-21 15:37 | 55.92132 | -3.45689 | 1082 ft | 129 kts | 62° |
| 2026-04-21 15:38 | 55.92586 | -3.44354 | 903 ft | 127 kts | 60° |
| 2026-04-21 15:38 | 55.93042 | -3.43009 | 675 ft | 125 kts | 60° |
| 2026-04-21 15:38 | 55.93489 | -3.41683 | 477 ft | 123 kts | 60° |
| 2026-04-21 15:38 | 55.93781 | -3.40822 | 399 ft | 123 kts | 58° |
| 2026-04-21 15:39 | 55.94402 | -3.39016 | 207 ft | 125 kts | 60° |
| 2026-04-21 15:39 | 55.94851 | -3.37712 | 254 ft | 130 kts | 57° |
| 2026-04-21 15:39 | 55.95200 | -3.36749 | 699 ft | 141 kts | 57° |
| 2026-04-21 15:39 | 55.95762 | -3.35167 | 1363 ft | 162 kts | 58° |
| 2026-04-21 15:40 | 55.96410 | -3.33380 | 1693 ft | 178 kts | 58° |
| 2026-04-21 15:40 | 55.97123 | -3.31507 | 2299 ft | 184 kts | 58° |
| 2026-04-21 15:40 | 55.97860 | -3.29599 | 2880 ft | 190 kts | 56° |
| 2026-04-21 15:40 | 55.98879 | -3.28102 | 2995 ft | 197 kts | 24° |
| 2026-04-21 15:41 | 56.00252 | -3.27838 | 3009 ft | 203 kts | 2° |
| 2026-04-21 15:41 | 56.01615 | -3.28537 | 3011 ft | 210 kts | 336° |
| 2026-04-21 15:41 | 56.02855 | -3.29943 | 3012 ft | 211 kts | 330° |
| 2026-04-21 15:41 | 56.04047 | -3.31488 | 3011 ft | 214 kts | 320° |
| 2026-04-21 15:42 | 56.04767 | -3.33820 | 3013 ft | 220 kts | 282° |
| 2026-04-21 15:42 | 56.04627 | -3.36516 | 3015 ft | 221 kts | 248° |
| 2026-04-21 15:42 | 56.03976 | -3.39018 | 3012 ft | 222 kts | 240° |
| 2026-04-21 15:42 | 56.03251 | -3.41472 | 3013 ft | 226 kts | 239° |
| 2026-04-21 15:43 | 56.02522 | -3.43982 | 3014 ft | 229 kts | 240° |
| 2026-04-21 15:43 | 56.01784 | -3.46495 | 3022 ft | 227 kts | 240° |
| 2026-04-21 15:43 | 56.01048 | -3.48981 | 3247 ft | 227 kts | 240° |
| 2026-04-21 15:43 | 56.00311 | -3.51472 | 3515 ft | 227 kts | 239° |
| 2026-04-21 15:44 | 55.99574 | -3.53972 | 3756 ft | 227 kts | 239° |
| 2026-04-21 15:44 | 55.98837 | -3.56491 | 3964 ft | 229 kts | 239° |
| 2026-04-21 15:44 | 55.98100 | -3.59013 | 4003 ft | 230 kts | 239° |
| 2026-04-21 15:44 | 55.97367 | -3.61553 | 4007 ft | 231 kts | 239° |
| 2026-04-21 15:45 | 55.96634 | -3.64091 | 4003 ft | 229 kts | 239° |
| 2026-04-21 15:45 | 55.95902 | -3.66620 | 4002 ft | 229 kts | 240° |
| 2026-04-21 15:45 | 55.95167 | -3.69145 | 4004 ft | 229 kts | 240° |
| 2026-04-21 15:45 | 55.94429 | -3.71647 | 4004 ft | 228 kts | 239° |
| 2026-04-21 15:46 | 55.93695 | -3.74155 | 3997 ft | 229 kts | 239° |
| 2026-04-21 15:46 | 55.92908 | -3.76601 | 3984 ft | 226 kts | 227° |
| 2026-04-21 15:46 | 55.91731 | -3.78300 | 3982 ft | 208 kts | 199° |
| 2026-04-21 15:46 | 55.90395 | -3.78855 | 3986 ft | 191 kts | 172° |
| 2026-04-21 15:47 | 55.89110 | -3.78593 | 3999 ft | 184 kts | 165° |
| 2026-04-21 15:47 | 55.87842 | -3.78267 | 3993 ft | 184 kts | 165° |
| 2026-04-21 15:47 | 55.86582 | -3.77898 | 3984 ft | 181 kts | 158° |
| 2026-04-21 15:47 | 55.85458 | -3.76984 | 3987 ft | 176 kts | 140° |
| 2026-04-21 15:48 | 55.84592 | -3.75513 | 3989 ft | 171 kts | 122° |
| 2026-04-21 15:48 | 55.84048 | -3.73672 | 3999 ft | 168 kts | 106° |
| 2026-04-21 15:48 | 55.83863 | -3.71651 | 4002 ft | 165 kts | 89° |
| 2026-04-21 15:48 | 55.84045 | -3.69631 | 3998 ft | 166 kts | 73° |
| 2026-04-21 15:49 | 55.84569 | -3.67781 | 3919 ft | 168 kts | 62° |
| 2026-04-21 15:49 | 55.85177 | -3.66017 | 3735 ft | 167 kts | 61° |
| 2026-04-21 15:49 | 55.85779 | -3.64269 | 3529 ft | 165 kts | 62° |
| 2026-04-21 15:49 | 55.86379 | -3.62520 | 3301 ft | 164 kts | 61° |
| 2026-04-21 15:50 | 55.86991 | -3.60735 | 3073 ft | 166 kts | 61° |
| 2026-04-21 15:50 | 55.87589 | -3.58991 | 2853 ft | 163 kts | 61° |
| 2026-04-21 15:50 | 55.88169 | -3.57298 | 2626 ft | 155 kts | 61° |
| 2026-04-21 15:50 | 55.88724 | -3.55675 | 2422 ft | 148 kts | 61° |
| 2026-04-21 15:51 | 55.89251 | -3.54132 | 2217 ft | 144 kts | 61° |
| 2026-04-21 15:51 | 55.89774 | -3.52601 | 1998 ft | 145 kts | 61° |
| 2026-04-21 15:51 | 55.90298 | -3.51066 | 1810 ft | 143 kts | 62° |
| 2026-04-21 15:51 | 55.90810 | -3.49566 | 1606 ft | 142 kts | 61° |
| 2026-04-21 15:52 | 55.91320 | -3.48069 | 1417 ft | 143 kts | 60° |
| 2026-04-21 15:52 | 55.91817 | -3.46613 | 1214 ft | 131 kts | 62° |
| 2026-04-21 15:52 | 55.92281 | -3.45248 | 1016 ft | 127 kts | 61° |
| 2026-04-21 15:52 | 55.92733 | -3.43920 | 818 ft | 125 kts | 60° |
| 2026-04-21 15:53 | 55.93179 | -3.42608 | 664 ft | 122 kts | 60° |
| 2026-04-21 15:53 | 55.93629 | -3.41288 | 497 ft | 123 kts | 59° |
| 2026-04-21 15:53 | 55.94075 | -3.39984 | 303 ft | 120 kts | 59° |
| 2026-04-21 15:53 | 55.94513 | -3.38692 | 170 ft | 123 kts | 59° |
| 2026-04-21 15:54 | 55.94939 | -3.37433 | 111 ft | 103 kts | 59° |
| 2026-04-21 15:54 | 55.95150 | -3.36807 | 113 ft | 15 kts | 59° |
| 2026-04-21 15:54 | 55.95167 | -3.36756 | 113 ft | 14 kts | 59° |
| 2026-04-21 15:54 | 55.95233 | -3.36559 | 111 ft | 21 kts | 59° |
| 2026-04-21 15:55 | 55.95232 | -3.36393 | 113 ft | 13 kts | 144° |
| 2026-04-21 15:55 | 55.95202 | -3.36361 | 114 ft | 0 kts | 149° |
| 2026-04-21 15:56 | 55.95201 | -3.36359 | 115 ft | 1 kts | 149° |
| 2026-04-21 15:56 | 55.95177 | -3.36333 | 115 ft | 8 kts | 148° |
| 2026-04-21 15:56 | 55.95139 | -3.36242 | 113 ft | 11 kts | 108° |
| 2026-04-21 15:57 | 55.95113 | -3.36103 | 115 ft | 10 kts | 109° |
| 2026-04-21 15:57 | 55.95087 | -3.35973 | 116 ft | 12 kts | 112° |
| 2026-04-21 15:57 | 55.95055 | -3.35868 | 114 ft | 6 kts | 120° |
| 2026-04-21 15:57 | 55.95010 | -3.35834 | 114 ft | 9 kts | 195° |
| 2026-04-21 15:58 | 55.94942 | -3.35851 | 116 ft | 12 kts | 158° |
| 2026-04-21 15:58 | 55.94902 | -3.35762 | 114 ft | 4 kts | 131° |
| 2026-04-21 15:58 | 55.94867 | -3.35776 | 113 ft | 7 kts | 205° |
| 2026-04-21 15:58 | 55.94837 | -3.35803 | 113 ft | 1 kts | 208° |
| 2026-04-21 15:59 | 55.94834 | -3.35806 | 114 ft | 0 kts | 208° |
| 2026-04-21 16:00 | 55.94834 | -3.35807 | 116 ft | 0 kts | 208° |